Terminal Aerodrome Forecast
Issued by NWS Green Bay, WI

Home | Current Version | Previous Version | Text Only | Print | Product List | Glossary On
Versions: 1 2 3 4 5 6 7 8 9 10 11 12 13 14 15 16 17 18 19 20 21 22 23 24 25 26 27 28 29 30 31 32 33 34
000
FTUS43 KGRB 191100
TAFGRB
TAF
KGRB 191126Z 1912/2012 VRB03KT P6SM BKN250
     FM200800 22003KT 4SM BR BKN020 BKN070=

USA.gov is the U.S. government's official web portal to all federal, state and local government web resources and services.